sensor_id;sensor_type;location;lat;lon;timestamp;temperature;humidity
12632;DHT22;6381;45.748;12.106;2023-04-01T00:02:12;10.20;99.90
12632;DHT22;6381;45.748;12.106;2023-04-01T00:04:43;10.20;99.90
12632;DHT22;6381;45.748;12.106;2023-04-01T00:07:14;10.30;99.90
12632;DHT22;6381;45.748;12.106;2023-04-01T00:09:44;10.40;99.90
12632;DHT22;6381;45.748;12.106;2023-04-01T00:12:14;10.30;99.90
12632;DHT22;6381;45.748;12.106;2023-04-01T00:14:44;10.40;99.90
12632;DHT22;6381;45.748;12.106;2023-04-01T00:17:14;10.30;99.90
12632;DHT22;6381;45.748;12.106;2023-04-01T00:19:46;10.20;99.90
12632;DHT22;6381;45.748;12.106;2023-04-01T00:22:19;10.10;99.90
12632;DHT22;6381;45.748;12.106;2023-04-01T00:24:49;10.10;99.90
12632;DHT22;6381;45.748;12.106;2023-04-01T00:27:19;10.00;99.90
12632;DHT22;6381;45.748;12.106;2023-04-01T00:29:49;9.90;99.90
12632;DHT22;6381;45.748;12.106;2023-04-01T00:32:19;9.80;99.90
12632;DHT22;6381;45.748;12.106;2023-04-01T00:34:53;9.80;99.90
12632;DHT22;6381;45.748;12.106;2023-04-01T00:37:26;9.70;99.90
12632;DHT22;6381;45.748;12.106;2023-04-01T00:39:56;9.80;99.90
12632;DHT22;6381;45.748;12.106;2023-04-01T00:42:27;9.50;99.90
12632;DHT22;6381;45.748;12.106;2023-04-01T00:44:57;9.60;99.90
12632;DHT22;6381;45.748;12.106;2023-04-01T00:47:27;9.60;99.90
12632;DHT22;6381;45.748;12.106;2023-04-01T00:50:00;9.50;99.90
12632;DHT22;6381;45.748;12.106;2023-04-01T00:52:30;9.50;99.90
12632;DHT22;6381;45.748;12.106;2023-04-01T00:55:00;9.40;99.90
12632;DHT22;6381;45.748;12.106;2023-04-01T00:57:34;9.40;99.90
12632;DHT22;6381;45.748;12.106;2023-04-01T01:00:06;9.60;99.90
12632;DHT22;6381;45.748;12.106;2023-04-01T01:02:41;9.60;99.90
12632;DHT22;6381;45.748;12.106;2023-04-01T01:05:16;9.50;99.90
12632;DHT22;6381;45.748;12.106;2023-04-01T01:07:53;9.40;99.90
12632;DHT22;6381;45.748;12.106;2023-04-01T01:10:30;9.20;99.90
12632;DHT22;6381;45.748;12.106;2023-04-01T01:13:07;9.00;99.90
12632;DHT22;6381;45.748;12.106;2023-04-01T01:15:44;9.20;99.90
12632;DHT22;6381;45.748;12.106;2023-04-01T01:18:19;9.20;99.90
12632;DHT22;6381;45.748;12.106;2023-04-01T01:21:26;9.20;99.90
12632;DHT22;6381;45.748;12.106;2023-04-01T01:24:22;9.30;99.90
12632;DHT22;6381;45.748;12.106;2023-04-01T01:27:00;9.20;99.90
12632;DHT22;6381;45.748;12.106;2023-04-01T01:30:10;9.40;99.90
12632;DHT22;6381;45.748;12.106;2023-04-01T01:33:13;9.10;99.90
12632;DHT22;6381;45.748;12.106;2023-04-01T01:35:50;9.00;99.90
12632;DHT22;6381;45.748;12.106;2023-04-01T01:38:24;9.20;99.90
12632;DHT22;6381;45.748;12.106;2023-04-01T01:41:02;9.10;99.90
12632;DHT22;6381;45.748;12.106;2023-04-01T01:43:36;9.10;99.90
12632;DHT22;6381;45.748;12.106;2023-04-01T01:46:11;9.10;99.90
12632;DHT22;6381;45.748;12.106;2023-04-01T01:48:44;9.20;99.90
12632;DHT22;6381;45.748;12.106;2023-04-01T01:51:18;9.00;99.90
12632;DHT22;6381;45.748;12.106;2023-04-01T01:53:48;9.10;99.90
12632;DHT22;6381;45.748;12.106;2023-04-01T01:56:23;9.20;99.90
12632;DHT22;6381;45.748;12.106;2023-04-01T01:58:59;9.20;99.90
12632;DHT22;6381;45.748;12.106;2023-04-01T02:01:33;9.30;99.90
12632;DHT22;6381;45.748;12.106;2023-04-01T02:04:13;9.40;99.90
12632;DHT22;6381;45.748;12.106;2023-04-01T02:06:50;9.30;99.90
12632;DHT22;6381;45.748;12.106;2023-04-01T02:09:23;9.30;99.90
12632;DHT22;6381;45.748;12.106;2023-04-01T02:11:56;9.30;99.90
12632;DHT22;6381;45.748;12.106;2023-04-01T02:14:33;9.10;99.90
12632;DHT22;6381;45.748;12.106;2023-04-01T02:17:10;9.20;99.90
12632;DHT22;6381;45.748;12.106;2023-04-01T02:19:46;9.10;99.90
12632;DHT22;6381;45.748;12.106;2023-04-01T02:22:21;9.10;99.90
12632;DHT22;6381;45.748;12.106;2023-04-01T02:24:57;8.80;99.90
12632;DHT22;6381;45.748;12.106;2023-04-01T02:27:28;8.90;99.90
12632;DHT22;6381;45.748;12.106;2023-04-01T02:30:00;8.80;99.90
12632;DHT22;6381;45.748;12.106;2023-04-01T02:32:31;8.90;99.90
12632;DHT22;6381;45.748;12.106;2023-04-01T02:35:04;8.90;99.90
12632;DHT22;6381;45.748;12.106;2023-04-01T02:37:37;8.90;99.90
12632;DHT22;6381;45.748;12.106;2023-04-01T02:40:12;8.80;99.90
12632;DHT22;6381;45.748;12.106;2023-04-01T02:42:42;8.70;99.90
12632;DHT22;6381;45.748;12.106;2023-04-01T02:45:13;8.70;99.90
12632;DHT22;6381;45.748;12.106;2023-04-01T02:47:43;8.60;99.90
12632;DHT22;6381;45.748;12.106;2023-04-01T02:50:14;8.80;99.90
12632;DHT22;6381;45.748;12.106;2023-04-01T02:52:46;8.80;99.90
12632;DHT22;6381;45.748;12.106;2023-04-01T02:55:17;8.70;99.90
12632;DHT22;6381;45.748;12.106;2023-04-01T02:57:48;8.70;99.90
12632;DHT22;6381;45.748;12.106;2023-04-01T03:00:18;8.80;99.90
12632;DHT22;6381;45.748;12.106;2023-04-01T03:02:48;8.60;99.90
12632;DHT22;6381;45.748;12.106;2023-04-01T03:05:19;8.60;99.90
12632;DHT22;6381;45.748;12.106;2023-04-01T03:07:51;8.60;99.90
12632;DHT22;6381;45.748;12.106;2023-04-01T03:10:21;8.70;99.90
12632;DHT22;6381;45.748;12.106;2023-04-01T03:12:51;8.80;99.90
12632;DHT22;6381;45.748;12.106;2023-04-01T03:15:21;9.00;99.90
12632;DHT22;6381;45.748;12.106;2023-04-01T03:17:51;9.20;99.90
12632;DHT22;6381;45.748;12.106;2023-04-01T03:20:21;9.00;99.90
12632;DHT22;6381;45.748;12.106;2023-04-01T03:22:53;9.00;99.90
12632;DHT22;6381;45.748;12.106;2023-04-01T03:25:23;8.90;99.90
12632;DHT22;6381;45.748;12.106;2023-04-01T03:27:53;9.00;99.90
12632;DHT22;6381;45.748;12.106;2023-04-01T03:30:23;9.00;99.90
12632;DHT22;6381;45.748;12.106;2023-04-01T03:32:53;8.90;99.90
12632;DHT22;6381;45.748;12.106;2023-04-01T03:35:24;8.70;99.90
12632;DHT22;6381;45.748;12.106;2023-04-01T03:37:55;8.70;99.90
12632;DHT22;6381;45.748;12.106;2023-04-01T03:40:25;8.80;99.90
12632;DHT22;6381;45.748;12.106;2023-04-01T03:42:55;8.60;99.90
12632;DHT22;6381;45.748;12.106;2023-04-01T03:45:25;8.80;99.90
12632;DHT22;6381;45.748;12.106;2023-04-01T03:47:55;8.80;99.90
12632;DHT22;6381;45.748;12.106;2023-04-01T03:50:25;8.90;99.90
12632;DHT22;6381;45.748;12.106;2023-04-01T03:52:59;9.00;99.90
12632;DHT22;6381;45.748;12.106;2023-04-01T03:55:29;9.10;99.90
12632;DHT22;6381;45.748;12.106;2023-04-01T03:57:59;9.10;99.90
12632;DHT22;6381;45.748;12.106;2023-04-01T04:00:30;9.30;99.90
12632;DHT22;6381;45.748;12.106;2023-04-01T04:03:02;9.10;99.90
12632;DHT22;6381;45.748;12.106;2023-04-01T04:05:34;9.10;99.90
12632;DHT22;6381;45.748;12.106;2023-04-01T04:08:07;9.30;99.90
12632;DHT22;6381;45.748;12.106;2023-04-01T04:10:37;9.40;99.90
12632;DHT22;6381;45.748;12.106;2023-04-01T04:13:07;9.30;99.90
12632;DHT22;6381;45.748;12.106;2023-04-01T04:15:44;9.40;99.90
12632;DHT22;6381;45.748;12.106;2023-04-01T04:18:14;9.30;99.90
12632;DHT22;6381;45.748;12.106;2023-04-01T04:20:44;9.20;99.90
12632;DHT22;6381;45.748;12.106;2023-04-01T04:23:18;9.40;99.90
12632;DHT22;6381;45.748;12.106;2023-04-01T04:25:56;9.50;99.90
12632;DHT22;6381;45.748;12.106;2023-04-01T04:28:28;9.40;99.90
12632;DHT22;6381;45.748;12.106;2023-04-01T04:30:59;9.10;99.90
12632;DHT22;6381;45.748;12.106;2023-04-01T04:33:30;9.40;99.90
12632;DHT22;6381;45.748;12.106;2023-04-01T04:36:00;9.30;99.90
12632;DHT22;6381;45.748;12.106;2023-04-01T04:38:32;9.10;99.90
12632;DHT22;6381;45.748;12.106;2023-04-01T04:41:03;8.80;99.90
12632;DHT22;6381;45.748;12.106;2023-04-01T04:43:41;8.90;99.90
12632;DHT22;6381;45.748;12.106;2023-04-01T04:46:11;8.90;99.90
12632;DHT22;6381;45.748;12.106;2023-04-01T04:48:42;9.10;99.90
12632;DHT22;6381;45.748;12.106;2023-04-01T04:51:14;8.90;99.90
12632;DHT22;6381;45.748;12.106;2023-04-01T04:53:47;9.00;99.90
12632;DHT22;6381;45.748;12.106;2023-04-01T04:56:23;9.00;99.90
12632;DHT22;6381;45.748;12.106;2023-04-01T04:59:02;9.00;99.90
12632;DHT22;6381;45.748;12.106;2023-04-01T05:01:41;8.90;99.90
12632;DHT22;6381;45.748;12.106;2023-04-01T05:04:12;9.10;99.90
12632;DHT22;6381;45.748;12.106;2023-04-01T05:06:46;9.10;99.90
12632;DHT22;6381;45.748;12.106;2023-04-01T05:09:19;9.40;99.90
12632;DHT22;6381;45.748;12.106;2023-04-01T05:11:50;8.70;99.90
12632;DHT22;6381;45.748;12.106;2023-04-01T05:14:21;8.70;99.90
12632;DHT22;6381;45.748;12.106;2023-04-01T05:16:58;9.00;99.90
12632;DHT22;6381;45.748;12.106;2023-04-01T05:19:28;9.30;99.90
12632;DHT22;6381;45.748;12.106;2023-04-01T05:21:59;8.90;99.90
12632;DHT22;6381;45.748;12.106;2023-04-01T05:24:32;9.30;99.90
12632;DHT22;6381;45.748;12.106;2023-04-01T05:27:02;9.10;99.90
12632;DHT22;6381;45.748;12.106;2023-04-01T05:29:35;9.00;99.90
12632;DHT22;6381;45.748;12.106;2023-04-01T05:32:08;9.20;99.90
12632;DHT22;6381;45.748;12.106;2023-04-01T05:34:38;9.40;99.90
12632;DHT22;6381;45.748;12.106;2023-04-01T05:37:08;9.20;99.90
12632;DHT22;6381;45.748;12.106;2023-04-01T05:39:41;9.20;99.90
12632;DHT22;6381;45.748;12.106;2023-04-01T05:42:12;9.10;99.90
12632;DHT22;6381;45.748;12.106;2023-04-01T05:44:42;9.20;99.90
12632;DHT22;6381;45.748;12.106;2023-04-01T05:47:47;9.30;99.90
12632;DHT22;6381;45.748;12.106;2023-04-01T05:50:18;8.90;99.90
12632;DHT22;6381;45.748;12.106;2023-04-01T05:52:50;9.20;99.90
12632;DHT22;6381;45.748;12.106;2023-04-01T05:55:22;9.40;99.90
12632;DHT22;6381;45.748;12.106;2023-04-01T05:57:53;9.60;99.90
12632;DHT22;6381;45.748;12.106;2023-04-01T06:00:23;9.60;99.90
12632;DHT22;6381;45.748;12.106;2023-04-01T06:02:53;9.80;99.90
12632;DHT22;6381;45.748;12.106;2023-04-01T06:05:27;9.80;99.90
12632;DHT22;6381;45.748;12.106;2023-04-01T06:07:59;9.90;99.90
12632;DHT22;6381;45.748;12.106;2023-04-01T06:10:40;9.90;99.90
12632;DHT22;6381;45.748;12.106;2023-04-01T06:13:20;10.10;99.90
12632;DHT22;6381;45.748;12.106;2023-04-01T06:15:56;10.30;99.90
12632;DHT22;6381;45.748;12.106;2023-04-01T06:18:54;10.60;99.90
12632;DHT22;6381;45.748;12.106;2023-04-01T06:21:46;10.40;99.90
12632;DHT22;6381;45.748;12.106;2023-04-01T06:24:31;10.60;99.90
12632;DHT22;6381;45.748;12.106;2023-04-01T06:27:17;10.30;99.90
12632;DHT22;6381;45.748;12.106;2023-04-01T06:30:06;10.60;99.90
12632;DHT22;6381;45.748;12.106;2023-04-01T06:32:53;10.50;99.90
12632;DHT22;6381;45.748;12.106;2023-04-01T06:35:49;10.50;99.90
12632;DHT22;6381;45.748;12.106;2023-04-01T06:38:42;10.60;99.90
12632;DHT22;6381;45.748;12.106;2023-04-01T06:41:41;10.70;99.90
12632;DHT22;6381;45.748;12.106;2023-04-01T06:44:26;10.90;99.90
12632;DHT22;6381;45.748;12.106;2023-04-01T06:47:29;11.20;99.90
12632;DHT22;6381;45.748;12.106;2023-04-01T06:50:26;11.50;99.90
12632;DHT22;6381;45.748;12.106;2023-04-01T06:53:31;11.50;99.90
12632;DHT22;6381;45.748;12.106;2023-04-01T06:56:24;11.70;99.90
12632;DHT22;6381;45.748;12.106;2023-04-01T06:59:12;11.90;99.90
12632;DHT22;6381;45.748;12.106;2023-04-01T07:01:49;11.80;99.90
12632;DHT22;6381;45.748;12.106;2023-04-01T07:04:21;12.00;99.90
12632;DHT22;6381;45.748;12.106;2023-04-01T07:06:55;11.90;99.90
12632;DHT22;6381;45.748;12.106;2023-04-01T07:09:30;12.10;99.90
12632;DHT22;6381;45.748;12.106;2023-04-01T07:12:36;11.60;99.90
12632;DHT22;6381;45.748;12.106;2023-04-01T07:15:30;12.00;99.90
12632;DHT22;6381;45.748;12.106;2023-04-01T07:18:14;11.90;99.90
12632;DHT22;6381;45.748;12.106;2023-04-01T07:20:46;12.00;99.90
12632;DHT22;6381;45.748;12.106;2023-04-01T07:23:21;12.00;99.90
12632;DHT22;6381;45.748;12.106;2023-04-01T07:26:19;12.00;99.90
12632;DHT22;6381;45.748;12.106;2023-04-01T07:29:19;12.10;99.90
12632;DHT22;6381;45.748;12.106;2023-04-01T07:32:13;12.10;99.90
12632;DHT22;6381;45.748;12.106;2023-04-01T07:34:59;12.20;99.90
12632;DHT22;6381;45.748;12.106;2023-04-01T07:37:38;12.10;99.90
12632;DHT22;6381;45.748;12.106;2023-04-01T07:40:20;12.10;99.90
12632;DHT22;6381;45.748;12.106;2023-04-01T07:43:07;12.20;99.90
12632;DHT22;6381;45.748;12.106;2023-04-01T07:45:50;12.10;99.90
12632;DHT22;6381;45.748;12.106;2023-04-01T07:48:26;12.30;99.90
12632;DHT22;6381;45.748;12.106;2023-04-01T07:51:08;12.30;99.90
12632;DHT22;6381;45.748;12.106;2023-04-01T07:53:46;12.20;99.90
12632;DHT22;6381;45.748;12.106;2023-04-01T07:56:22;12.20;99.90
12632;DHT22;6381;45.748;12.106;2023-04-01T07:59:02;12.10;99.90
12632;DHT22;6381;45.748;12.106;2023-04-01T08:01:59;12.20;99.90
12632;DHT22;6381;45.748;12.106;2023-04-01T08:04:42;12.20;99.90
12632;DHT22;6381;45.748;12.106;2023-04-01T08:07:21;12.20;99.90
12632;DHT22;6381;45.748;12.106;2023-04-01T08:10:26;12.10;99.90
12632;DHT22;6381;45.748;12.106;2023-04-01T08:13:35;12.10;99.90
12632;DHT22;6381;45.748;12.106;2023-04-01T08:16:13;12.30;99.90
12632;DHT22;6381;45.748;12.106;2023-04-01T08:18:58;12.30;99.90
12632;DHT22;6381;45.748;12.106;2023-04-01T08:21:36;12.50;99.90
12632;DHT22;6381;45.748;12.106;2023-04-01T08:24:17;12.70;99.90
12632;DHT22;6381;45.748;12.106;2023-04-01T08:26:55;12.80;99.90
12632;DHT22;6381;45.748;12.106;2023-04-01T08:29:33;12.90;99.90
12632;DHT22;6381;45.748;12.106;2023-04-01T08:46:06;13.10;98.40
12632;DHT22;6381;45.748;12.106;2023-04-01T08:49:03;13.90;94.90
12632;DHT22;6381;45.748;12.106;2023-04-01T08:58:31;13.90;93.50
12632;DHT22;6381;45.748;12.106;2023-04-01T09:02:00;14.20;93.90
12632;DHT22;6381;45.748;12.106;2023-04-01T09:08:04;14.60;94.60
12632;DHT22;6381;45.748;12.106;2023-04-01T09:10:55;14.30;93.60
12632;DHT22;6381;45.748;12.106;2023-04-01T09:14:23;14.30;93.00
12632;DHT22;6381;45.748;12.106;2023-04-01T09:17:50;14.40;91.80
12632;DHT22;6381;45.748;12.106;2023-04-01T09:20:38;14.30;92.30
12632;DHT22;6381;45.748;12.106;2023-04-01T09:23:40;14.60;91.50
12632;DHT22;6381;45.748;12.106;2023-04-01T09:26:26;14.90;91.40
12632;DHT22;6381;45.748;12.106;2023-04-01T09:29:05;15.00;90.40
12632;DHT22;6381;45.748;12.106;2023-04-01T09:31:59;15.30;90.70
12632;DHT22;6381;45.748;12.106;2023-04-01T09:35:08;15.70;90.30
12632;DHT22;6381;45.748;12.106;2023-04-01T09:37:54;15.60;88.50
12632;DHT22;6381;45.748;12.106;2023-04-01T09:40:40;15.40;88.60
12632;DHT22;6381;45.748;12.106;2023-04-01T09:43:27;15.30;88.30
12632;DHT22;6381;45.748;12.106;2023-04-01T09:46:14;15.30;87.50
12632;DHT22;6381;45.748;12.106;2023-04-01T09:49:26;15.50;86.60
12632;DHT22;6381;45.748;12.106;2023-04-01T09:52:16;16.30;91.30
12632;DHT22;6381;45.748;12.106;2023-04-01T09:54:59;16.50;90.00
12632;DHT22;6381;45.748;12.106;2023-04-01T10:16:57;15.70;82.20
12632;DHT22;6381;45.748;12.106;2023-04-01T10:26:08;16.30;82.40
12632;DHT22;6381;45.748;12.106;2023-04-01T10:32:15;16.40;78.30
12632;DHT22;6381;45.748;12.106;2023-04-01T10:35:14;16.20;76.10
12632;DHT22;6381;45.748;12.106;2023-04-01T10:38:13;16.20;75.30
12632;DHT22;6381;45.748;12.106;2023-04-01T10:41:05;16.40;73.80
12632;DHT22;6381;45.748;12.106;2023-04-01T10:47:48;16.40;72.20
12632;DHT22;6381;45.748;12.106;2023-04-01T10:50:31;16.40;71.10
12632;DHT22;6381;45.748;12.106;2023-04-01T10:56:39;17.50;75.00
12632;DHT22;6381;45.748;12.106;2023-04-01T10:59:52;17.90;67.20
12632;DHT22;6381;45.748;12.106;2023-04-01T11:06:58;17.60;67.80
12632;DHT22;6381;45.748;12.106;2023-04-01T11:16:30;19.00;67.50
12632;DHT22;6381;45.748;12.106;2023-04-01T11:22:30;19.90;61.40
12632;DHT22;6381;45.748;12.106;2023-04-01T11:25:29;19.70;54.80
12632;DHT22;6381;45.748;12.106;2023-04-01T11:31:55;19.90;58.60
12632;DHT22;6381;45.748;12.106;2023-04-01T11:34:39;20.40;59.50
12632;DHT22;6381;45.748;12.106;2023-04-01T11:37:24;20.30;55.80
12632;DHT22;6381;45.748;12.106;2023-04-01T11:40:25;20.10;58.10
12632;DHT22;6381;45.748;12.106;2023-04-01T11:43:23;20.50;55.30
12632;DHT22;6381;45.748;12.106;2023-04-01T11:46:23;20.60;52.90
12632;DHT22;6381;45.748;12.106;2023-04-01T11:49:05;19.90;53.40
12632;DHT22;6381;45.748;12.106;2023-04-01T11:51:58;19.80;53.10
12632;DHT22;6381;45.748;12.106;2023-04-01T11:54:52;20.10;52.90
12632;DHT22;6381;45.748;12.106;2023-04-01T11:57:42;19.30;54.00
12632;DHT22;6381;45.748;12.106;2023-04-01T12:00:25;19.00;54.30
12632;DHT22;6381;45.748;12.106;2023-04-01T12:03:29;19.70;53.50
12632;DHT22;6381;45.748;12.106;2023-04-01T12:06:06;21.00;53.80
12632;DHT22;6381;45.748;12.106;2023-04-01T12:08:44;23.20;51.00
12632;DHT22;6381;45.748;12.106;2023-04-01T12:11:22;22.00;54.30
12632;DHT22;6381;45.748;12.106;2023-04-01T12:13:59;21.30;48.30
12632;DHT22;6381;45.748;12.106;2023-04-01T12:16:43;20.10;50.40
12632;DHT22;6381;45.748;12.106;2023-04-01T12:19:25;21.20;50.30
12632;DHT22;6381;45.748;12.106;2023-04-01T12:22:08;21.40;47.60
12632;DHT22;6381;45.748;12.106;2023-04-01T12:24:46;21.10;48.30
12632;DHT22;6381;45.748;12.106;2023-04-01T12:27:28;21.70;49.50
12632;DHT22;6381;45.748;12.106;2023-04-01T12:35:58;22.90;48.50
12632;DHT22;6381;45.748;12.106;2023-04-01T12:38:39;22.80;50.00
12632;DHT22;6381;45.748;12.106;2023-04-01T12:41:18;23.50;46.50
12632;DHT22;6381;45.748;12.106;2023-04-01T12:44:17;21.80;46.10
12632;DHT22;6381;45.748;12.106;2023-04-01T12:47:08;22.10;44.10
12632;DHT22;6381;45.748;12.106;2023-04-01T12:50:07;22.80;45.80
12632;DHT22;6381;45.748;12.106;2023-04-01T12:52:45;23.40;43.60
12632;DHT22;6381;45.748;12.106;2023-04-01T12:55:38;24.10;44.80
12632;DHT22;6381;45.748;12.106;2023-04-01T12:58:51;23.90;42.60
12632;DHT22;6381;45.748;12.106;2023-04-01T13:01:48;22.80;41.80
12632;DHT22;6381;45.748;12.106;2023-04-01T13:07:42;22.30;41.50
12632;DHT22;6381;45.748;12.106;2023-04-01T13:10:26;21.70;42.30
12632;DHT22;6381;45.748;12.106;2023-04-01T13:13:15;21.60;40.90
12632;DHT22;6381;45.748;12.106;2023-04-01T13:15:52;23.20;40.70
12632;DHT22;6381;45.748;12.106;2023-04-01T13:18:31;23.70;39.30
12632;DHT22;6381;45.748;12.106;2023-04-01T13:21:11;23.00;44.70
12632;DHT22;6381;45.748;12.106;2023-04-01T13:23:54;24.90;40.60
12632;DHT22;6381;45.748;12.106;2023-04-01T13:26:29;23.90;37.60
12632;DHT22;6381;45.748;12.106;2023-04-01T13:29:04;23.20;37.40
12632;DHT22;6381;45.748;12.106;2023-04-01T13:31:56;23.80;37.30
12632;DHT22;6381;45.748;12.106;2023-04-01T13:34:39;22.40;38.20
12632;DHT22;6381;45.748;12.106;2023-04-01T13:37:23;22.30;38.60
12632;DHT22;6381;45.748;12.106;2023-04-01T13:40:19;21.90;38.10
12632;DHT22;6381;45.748;12.106;2023-04-01T13:42:53;23.00;38.00
12632;DHT22;6381;45.748;12.106;2023-04-01T13:45:29;24.10;36.80
12632;DHT22;6381;45.748;12.106;2023-04-01T13:48:25;24.30;35.20
12632;DHT22;6381;45.748;12.106;2023-04-01T13:53:51;25.60;33.00
12632;DHT22;6381;45.748;12.106;2023-04-01T13:56:31;23.50;34.50
12632;DHT22;6381;45.748;12.106;2023-04-01T14:02:19;23.60;37.70
12632;DHT22;6381;45.748;12.106;2023-04-01T14:05:07;23.60;35.10
12632;DHT22;6381;45.748;12.106;2023-04-01T14:07:50;23.30;36.90
12632;DHT22;6381;45.748;12.106;2023-04-01T14:10:31;24.10;33.70
12632;DHT22;6381;45.748;12.106;2023-04-01T14:13:09;24.50;34.50
12632;DHT22;6381;45.748;12.106;2023-04-01T14:18:50;24.80;34.00
12632;DHT22;6381;45.748;12.106;2023-04-01T14:21:29;25.50;33.70
12632;DHT22;6381;45.748;12.106;2023-04-01T14:27:30;23.40;35.10
12632;DHT22;6381;45.748;12.106;2023-04-01T14:32:59;24.80;35.90
12632;DHT22;6381;45.748;12.106;2023-04-01T14:35:37;24.20;36.00
12632;DHT22;6381;45.748;12.106;2023-04-01T14:38:43;23.70;35.20
12632;DHT22;6381;45.748;12.106;2023-04-01T14:41:21;23.10;35.90
12632;DHT22;6381;45.748;12.106;2023-04-01T14:47:15;22.60;36.30
12632;DHT22;6381;45.748;12.106;2023-04-01T14:49:51;23.10;35.90
12632;DHT22;6381;45.748;12.106;2023-04-01T14:52:26;23.90;35.80
12632;DHT22;6381;45.748;12.106;2023-04-01T14:54:58;23.70;35.80
12632;DHT22;6381;45.748;12.106;2023-04-01T14:57:28;23.70;37.40
12632;DHT22;6381;45.748;12.106;2023-04-01T15:00:12;22.90;37.90
12632;DHT22;6381;45.748;12.106;2023-04-01T15:02:57;23.30;38.80
12632;DHT22;6381;45.748;12.106;2023-04-01T15:05:39;22.70;38.80
12632;DHT22;6381;45.748;12.106;2023-04-01T15:08:20;22.80;39.20
12632;DHT22;6381;45.748;12.106;2023-04-01T15:11:05;22.40;38.50
12632;DHT22;6381;45.748;12.106;2023-04-01T15:13:55;22.90;39.70
12632;DHT22;6381;45.748;12.106;2023-04-01T15:16:34;23.60;38.60
12632;DHT22;6381;45.748;12.106;2023-04-01T15:19:14;24.30;37.10
12632;DHT22;6381;45.748;12.106;2023-04-01T15:22:06;23.80;36.40
12632;DHT22;6381;45.748;12.106;2023-04-01T15:24:46;23.80;37.40
12632;DHT22;6381;45.748;12.106;2023-04-01T15:27:21;23.00;36.30
12632;DHT22;6381;45.748;12.106;2023-04-01T15:33:15;24.60;35.50
12632;DHT22;6381;45.748;12.106;2023-04-01T15:35:49;23.60;32.80
12632;DHT22;6381;45.748;12.106;2023-04-01T15:38:30;23.00;36.00
12632;DHT22;6381;45.748;12.106;2023-04-01T15:41:13;23.60;35.50
12632;DHT22;6381;45.748;12.106;2023-04-01T15:43:46;24.70;35.00
12632;DHT22;6381;45.748;12.106;2023-04-01T15:46:41;24.10;35.00
12632;DHT22;6381;45.748;12.106;2023-04-01T15:55:16;24.00;35.50
12632;DHT22;6381;45.748;12.106;2023-04-01T15:58:03;24.60;35.30
12632;DHT22;6381;45.748;12.106;2023-04-01T16:00:46;25.20;33.20
12632;DHT22;6381;45.748;12.106;2023-04-01T16:03:29;24.00;34.10
12632;DHT22;6381;45.748;12.106;2023-04-01T16:06:15;23.00;35.80
12632;DHT22;6381;45.748;12.106;2023-04-01T16:08:59;23.70;37.00
12632;DHT22;6381;45.748;12.106;2023-04-01T16:11:37;24.40;41.80
12632;DHT22;6381;45.748;12.106;2023-04-01T16:14:20;23.90;43.60
12632;DHT22;6381;45.748;12.106;2023-04-01T16:17:02;23.40;45.40
12632;DHT22;6381;45.748;12.106;2023-04-01T16:19:46;22.90;46.50
12632;DHT22;6381;45.748;12.106;2023-04-01T16:22:23;22.60;47.10
12632;DHT22;6381;45.748;12.106;2023-04-01T16:25:17;22.20;47.60
12632;DHT22;6381;45.748;12.106;2023-04-01T16:27:54;22.20;48.10
12632;DHT22;6381;45.748;12.106;2023-04-01T16:30:35;22.00;48.30
12632;DHT22;6381;45.748;12.106;2023-04-01T16:33:13;22.10;48.20
12632;DHT22;6381;45.748;12.106;2023-04-01T16:35:47;22.10;48.30
12632;DHT22;6381;45.748;12.106;2023-04-01T16:38:27;21.90;50.00
12632;DHT22;6381;45.748;12.106;2023-04-01T16:41:11;21.50;50.10
12632;DHT22;6381;45.748;12.106;2023-04-01T16:43:43;21.10;51.10
12632;DHT22;6381;45.748;12.106;2023-04-01T16:46:33;21.00;51.90
12632;DHT22;6381;45.748;12.106;2023-04-01T16:52:12;21.40;51.80
12632;DHT22;6381;45.748;12.106;2023-04-01T16:54:50;21.80;51.40
12632;DHT22;6381;45.748;12.106;2023-04-01T16:57:26;21.00;53.10
12632;DHT22;6381;45.748;12.106;2023-04-01T17:00:03;20.90;53.30
12632;DHT22;6381;45.748;12.106;2023-04-01T17:02:37;20.70;54.10
12632;DHT22;6381;45.748;12.106;2023-04-01T17:05:09;20.70;54.50
12632;DHT22;6381;45.748;12.106;2023-04-01T17:07:47;20.20;55.40
12632;DHT22;6381;45.748;12.106;2023-04-01T17:10:37;19.50;57.60
12632;DHT22;6381;45.748;12.106;2023-04-01T17:13:29;19.00;60.90
12632;DHT22;6381;45.748;12.106;2023-04-01T17:16:16;18.80;63.60
12632;DHT22;6381;45.748;12.106;2023-04-01T17:18:57;18.60;65.10
12632;DHT22;6381;45.748;12.106;2023-04-01T17:21:36;18.60;67.40
12632;DHT22;6381;45.748;12.106;2023-04-01T17:24:14;18.60;68.90
12632;DHT22;6381;45.748;12.106;2023-04-01T17:26:55;18.50;69.80
12632;DHT22;6381;45.748;12.106;2023-04-01T17:29:31;18.60;70.90
12632;DHT22;6381;45.748;12.106;2023-04-01T17:32:07;18.50;72.30
12632;DHT22;6381;45.748;12.106;2023-04-01T17:34:51;18.50;73.50
12632;DHT22;6381;45.748;12.106;2023-04-01T17:37:38;18.30;75.10
12632;DHT22;6381;45.748;12.106;2023-04-01T17:40:37;18.10;75.80
12632;DHT22;6381;45.748;12.106;2023-04-01T17:43:17;18.10;77.10
12632;DHT22;6381;45.748;12.106;2023-04-01T17:45:54;17.90;78.70
12632;DHT22;6381;45.748;12.106;2023-04-01T17:48:31;17.80;79.60
12632;DHT22;6381;45.748;12.106;2023-04-01T17:51:20;17.80;80.30
12632;DHT22;6381;45.748;12.106;2023-04-01T17:53:59;17.60;81.50
12632;DHT22;6381;45.748;12.106;2023-04-01T17:56:42;17.60;82.00
12632;DHT22;6381;45.748;12.106;2023-04-01T17:59:23;17.40;83.30
12632;DHT22;6381;45.748;12.106;2023-04-01T18:02:02;17.30;84.50
12632;DHT22;6381;45.748;12.106;2023-04-01T18:04:44;17.10;86.60
12632;DHT22;6381;45.748;12.106;2023-04-01T18:07:32;17.10;88.20
12632;DHT22;6381;45.748;12.106;2023-04-01T18:10:20;16.90;89.10
12632;DHT22;6381;45.748;12.106;2023-04-01T18:13:18;16.90;90.10
12632;DHT22;6381;45.748;12.106;2023-04-01T18:16:02;16.80;90.50
12632;DHT22;6381;45.748;12.106;2023-04-01T18:18:46;16.50;91.10
12632;DHT22;6381;45.748;12.106;2023-04-01T18:21:25;16.00;92.80
12632;DHT22;6381;45.748;12.106;2023-04-01T18:24:00;16.20;93.30
12632;DHT22;6381;45.748;12.106;2023-04-01T18:26:33;16.40;93.80
12632;DHT22;6381;45.748;12.106;2023-04-01T18:29:13;16.30;94.60
12632;DHT22;6381;45.748;12.106;2023-04-01T18:31:49;16.20;94.60
12632;DHT22;6381;45.748;12.106;2023-04-01T18:34:40;16.40;94.90
12632;DHT22;6381;45.748;12.106;2023-04-01T18:37:18;16.50;95.30
12632;DHT22;6381;45.748;12.106;2023-04-01T18:42:29;16.10;95.60
12632;DHT22;6381;45.748;12.106;2023-04-01T18:45:14;16.30;96.50
12632;DHT22;6381;45.748;12.106;2023-04-01T18:47:54;16.10;97.20
12632;DHT22;6381;45.748;12.106;2023-04-01T18:50:27;16.00;96.40
12632;DHT22;6381;45.748;12.106;2023-04-01T18:53:10;15.70;97.10
12632;DHT22;6381;45.748;12.106;2023-04-01T18:55:47;15.30;99.80
12632;DHT22;6381;45.748;12.106;2023-04-01T18:58:24;15.30;99.90
12632;DHT22;6381;45.748;12.106;2023-04-01T19:01:04;15.60;99.60